Latest Weather Observations for Mildura

IDN60801

Issued at 7:32 pm EST Thursday 2 July 2015 (issued every 30 minutes, with the page automatically refreshed every 10 minutes)

About weather observations | Map of weather stations | Latest weather observations for NSW | Other Formats
Station Details ID: 076031 Name: MILDURA AIRPORT Lat: -34.24 Lon: 142.09 Height: 50.0 m
Data from the previous 72 hours. | See also: Recent months at Mildura
Date/Time
EST
Temp
°C
App
Temp
°C
Dew
Point
Rel
Hum
%
Delta-T
°C
Wind Press
QNH
hPa
Press
MSL
hPa
Rain
since 9 am
mm
Dir
 
Spd
km/h
Gust
km/h
Spd
kts
Gust
kts
02/07:30pm 8.2 5.1 1.6 63 2.7 S 7 9 4 5 1028.9 1029.0 0.0
02/07:00pm 8.8 5.8 1.7 61 2.9 S 7 11 4 6 1028.6 1028.7 0.0
02/06:30pm 10.0 6.6 1.6 56 3.5 SSW 9 11 5 6 1028.2 1028.3 0.0
02/06:00pm 11.0 7.6 1.8 53 3.9 SSW 9 11 5 6 1028.0 1028.1 0.0
02/05:30pm 12.6 9.3 2.2 49 4.5 SSW 9 13 5 7 1027.7 1027.8 0.0
02/05:00pm 14.3 9.8 1.9 43 5.4 S 15 22 8 12 1027.5 1027.6 0.0
02/04:30pm 14.9 10.0 2.1 42 5.7 SSW 17 24 9 13 1027.4 1027.5 0.0
02/04:00pm 15.5 10.5 1.3 38 6.2 SSW 17 26 9 14 1027.2 1027.3 0.0
02/03:30pm 15.7 11.2 2.2 40 6.0 SW 15 26 8 14 1027.1 1027.2 0.0
02/03:00pm 15.7 10.7 3.8 45 5.5 SW 19 30 10 16 1026.7 1026.8 0.0
02/02:30pm 15.2 9.8 4.6 49 5.0 WSW 22 35 12 19 1026.7 1026.8 0.0
02/02:00pm 14.7 10.5 5.5 54 4.3 S 17 26 9 14 1026.9 1027.0 0.0
02/01:30pm 15.1 10.1 4.5 49 4.9 SSW 20 32 11 17 1026.9 1027.0 0.0
02/01:00pm 14.6 9.4 3.7 48 4.9 S 20 32 11 17 1027.2 1027.3 0.0
02/12:30pm 14.4 10.3 6.0 57 4.0 SSW 17 30 9 16 1027.4 1027.5 0.0
02/12:00pm 14.9 11.0 8.6 66 3.2 SSW 19 30 10 16 1027.8 1027.9 0.0
02/11:30am 13.5 9.2 7.7 68 2.9 SSW 20 32 11 17 1027.9 1028.0 0.0
02/11:00am 12.1 8.7 7.8 75 2.1 SW 15 22 8 12 1028.0 1028.1 0.0
02/10:30am 11.2 7.3 6.9 75 2.0 SW 17 28 9 15 1027.9 1028.0 0.0
02/10:00am 9.8 6.0 5.6 75 1.9 WSW 15 20 8 11 1027.6 1027.7 0.0
02/09:30am 9.4 4.7 5.2 75 1.9 W 19 26 10 14 1027.4 1027.5 0.0
02/09:00am 8.2 4.1 4.6 78 1.6 WNW 15 20 8 11 1027.3 1027.4 0.0
02/08:30am 7.0 3.6 4.0 81 1.3 WNW 11 15 6 8 1027.3 1027.4 0.0
02/08:00am 6.0 2.1 3.5 84 1.0 WNW 13 19 7 10 1026.7 1026.8 0.0
02/07:30am 5.8 1.9 3.3 84 1.0 NW 13 17 7 9 1026.6 1026.7 0.0
02/07:00am 5.6 1.6 3.1 84 1.0 WNW 13 17 7 9 1026.5 1026.6 0.0
02/06:30am 5.3 1.7 2.7 83 1.1 NW 11 17 6 9 1026.2 1026.3 0.0
02/06:00am 4.8 1.1 2.5 85 0.9 WNW 11 13 6 7 1026.0 1026.1 0.0
02/05:30am 4.8 1.1 2.2 83 1.0 WNW 11 13 6 7 1025.9 1026.0 0.0
02/05:00am 4.2 0.8 1.9 85 0.9 NW 9 13 5 7 1025.9 1026.0 0.0
02/04:30am 4.7 1.4 2.4 85 0.9 WNW 9 13 5 7 1026.0 1026.1 0.0
02/04:00am 5.0 1.7 2.2 82 1.1 WNW 9 11 5 6 1026.0 1026.1 0.0
02/03:30am 5.1 1.7 2.1 81 1.2 WNW 9 13 5 7 1026.3 1026.4 0.0
02/03:00am 5.2 1.8 2.0 80 1.3 WNW 9 13 5 7 1026.6 1026.7 0.0
02/02:30am 5.8 2.5 2.3 78 1.4 NW 9 13 5 7 1026.4 1026.5 0.0
02/02:00am 6.3 3.0 2.6 77 1.5 NW 9 13 5 7 1026.6 1026.7 0.0
02/01:30am 6.7 3.5 2.8 76 1.6 NW 9 13 5 7 1026.7 1026.8 0.0
02/01:00am 7.6 4.4 2.9 72 2.0 NW 9 13 5 7 1027.0 1027.1 0.0
02/12:30am 8.2 4.2 2.7 68 2.3 NNW 13 19 7 10 1027.2 1027.3 0.0
02/12:00am 7.4 4.2 2.9 73 1.9 NNW 9 13 5 7 1027.4 1027.5 0.0
 
Date/Time
EST
Temp
°C
App
Temp
°C
Dew
Point
Rel
Hum
%
Delta-T
°C
Wind Press
QNH
hPa
Press
MSL
hPa
Rain
since 9 am
mm
Dir
 
Spd
km/h
Gust
km/h
Spd
kts
Gust
kts
01/11:30pm 7.1 3.9 2.8 74 1.8 NW 9 11 5 6 1027.6 1027.7 0.0
01/11:00pm 7.4 4.1 2.7 72 2.0 NNW 9 11 5 6 1027.5 1027.6 0.0
01/10:30pm 7.3 4.4 2.8 73 1.9 N 7 9 4 5 1027.4 1027.5 0.0
01/10:00pm 7.5 4.6 2.8 72 2.0 N 7 9 4 5 1027.8 1027.9 0.0
01/09:30pm 7.8 5.0 2.9 71 2.1 N 7 9 4 5 1028.0 1028.1 0.0
01/09:00pm 7.1 4.2 2.8 74 1.8 N 7 9 4 5 1027.7 1027.8 0.0
01/08:30pm 7.7 4.9 3.2 73 1.9 N 7 9 4 5 1027.7 1027.8 0.0
01/08:00pm 7.7 5.0 3.7 76 1.7 N 7 9 4 5 1027.5 1027.6 0.0
01/07:30pm 6.9 4.0 2.8 75 1.7 N 7 9 4 5 1027.5 1027.6 0.0
01/07:00pm 9.1 6.2 2.4 63 2.8 NNW 7 9 4 5 1027.6 1027.7 0.0
01/06:30pm 8.9 6.0 2.7 65 2.6 NNW 7 9 4 5 1027.4 1027.5 0.0
01/06:00pm 8.9 6.1 3.1 67 2.5 NW 7 9 4 5 1027.4 1027.5 0.0
01/05:30pm 9.9 7.1 3.2 63 2.9 NW 7 9 4 5 1027.1 1027.2 0.0
01/05:00pm 11.5 10.0 3.0 56 3.7 CALM 0 0 0 0 1026.9 1027.0 0.0
01/04:30pm 12.0 9.0 2.2 51 4.2 WNW 7 11 4 6 1027.1 1027.2 0.0
01/04:00pm 12.2 8.9 2.4 51 4.2 WNW 9 13 5 7 1027.6 1027.7 0.0
01/03:30pm 12.2 8.9 2.6 52 4.2 W 9 15 5 8 1027.8 1027.9 0.0
01/03:00pm 12.2 8.8 2.1 50 4.3 NW 9 17 5 9 1027.5 1027.6 0.0
01/02:30pm 12.4 9.3 3.6 55 3.9 WNW 9 13 5 7 1028.0 1028.1 0.0
01/02:00pm 12.3 8.8 3.3 54 4.0 WNW 11 17 6 9 1028.4 1028.5 0.0
01/01:30pm 12.2 9.1 3.7 56 3.8 WNW 9 15 5 8 1028.8 1028.9 0.0
01/01:00pm 11.8 8.4 3.8 58 3.5 WNW 11 17 6 9 1029.4 1029.5 0.0
01/12:30pm 11.4 8.3 3.7 59 3.4 WNW 9 13 5 7 1029.7 1029.8 0.0
01/12:00pm 11.4 8.1 4.6 63 3.1 W 11 19 6 10 1030.2 1030.3 0.0
01/11:30am 11.2 8.1 3.7 60 3.3 NW 9 13 5 7 1030.6 1030.7 0.0
01/11:00am 10.6 7.6 4.1 64 2.9 NNW 9 13 5 7 1030.8 1030.9 0.0
01/10:30am 9.3 6.7 4.3 71 2.2 NW 7 9 4 5 1031.1 1031.2 0.0
01/10:00am 8.1 6.4 3.8 74 1.8 NW 2 7 1 4 1031.1 1031.2 0.0
01/09:30am 6.1 3.5 3.4 83 1.1 NE 6 11 3 6 1031.0 1031.1 0.0
01/09:00am 5.2 2.5 2.9 85 0.9 WSW 6 11 3 6 1031.0 1031.1 0.0
01/08:30am 3.0 0.6 2.1 94 0.4 NW 4 7 2 4 1030.6 1030.7 0.0
01/08:00am 1.6 -1.0 1.0 96 0.2 WSW 4 7 2 4 1030.6 1030.7 0.0
01/07:30am 0.5 -2.3 -0.1 96 0.2 WSW 4 7 2 4 1030.5 1030.6 0.0
01/07:00am -0.2 -3.1 -0.8 96 0.2 WNW 4 9 2 5 1030.1 1030.2 0.0
01/06:30am -0.6 -3.1 -1.2 96 0.2 WNW 2 7 1 4 1029.7 1029.8 0.0
01/06:00am -0.3 -3.6 -0.9 96 0.2 W 6 7 3 4 1029.6 1029.7 0.0
01/05:30am -0.2 -3.1 -0.8 96 0.2 W 4 7 2 4 1029.5 1029.6 0.0
01/05:00am -0.1 -2.2 -0.8 95 0.2 CALM 0 0 0 0 1029.4 1029.5 0.0
01/04:30am 0.0 -3.2 -0.7 95 0.2 W 6 9 3 5 1029.3 1029.4 0.0
01/04:00am -0.1 -3.5 -0.9 94 0.3 W 7 9 4 5 1029.3 1029.4 0.0
01/03:30am 0.2 -2.6 -0.5 95 0.3 WSW 4 6 2 3 1029.2 1029.3 0.0
01/03:00am 0.2 -1.9 -0.6 94 0.3 CALM 0 0 0 0 1029.1 1029.2 0.0
01/02:30am 0.9 -1.1 -0.1 93 0.4 CALM 0 0 0 0 1029.4 1029.5 0.0
01/02:00am 1.4 -0.6 0.2 92 0.4 CALM 0 0 0 0 1029.4 1029.5 0.0
01/01:30am 1.8 -0.1 0.6 92 0.4 CALM 0 0 0 0 1029.7 1029.8 0.0
01/01:00am 2.1 -0.9 0.5 89 0.6 SW 6 6 3 3 1029.8 1029.9 0.0
01/12:30am 2.5 -0.7 0.7 88 0.7 SW 7 9 4 5 1030.1 1030.2 0.0
01/12:00am 3.2 0.1 1.3 87 0.7 SW 7 9 4 5 1030.4 1030.5 0.0
 
Date/Time
EST
Temp
°C
App
Temp
°C
Dew
Point
Rel
Hum
%
Delta-T
°C
Wind Press
QNH
hPa
Press
MSL
hPa
Rain
since 9 am
mm
Dir
 
Spd
km/h
Gust
km/h
Spd
kts
Gust
kts
30/11:30pm 3.1 0.1 1.0 86 0.8 SW 6 7 3 4 1030.7 1030.8 0.0
30/11:00pm 3.7 0.6 1.1 83 1.0 SSW 7 9 4 5 1030.7 1030.8 0.0
30/10:30pm 4.0 0.9 1.2 82 1.1 SW 7 7 4 4 1030.7 1030.8 0.0
30/10:00pm 4.6 1.8 2.0 83 1.0 SSW 6 7 3 4 1030.8 1030.9 0.0
30/09:30pm 4.7 1.7 2.2 84 1.0 SW 7 7 4 4 1030.8 1030.9 0.0
30/09:00pm 4.9 1.9 1.7 80 1.3 SSW 7 9 4 5 1030.5 1030.6 0.0
30/08:30pm 5.8 3.0 1.9 76 1.6 S 6 7 3 4 1030.3 1030.4 0.0
30/08:00pm 6.8 3.8 2.3 73 1.8 SSE 7 9 4 5 1030.1 1030.2 0.0
30/07:30pm 7.2 4.2 2.3 71 2.0 SSE 7 9 4 5 1029.9 1030.0 0.0
30/07:00pm 7.8 4.5 2.5 69 2.2 SE 9 11 5 6 1029.5 1029.6 0.0
30/06:30pm 9.2 5.6 2.8 64 2.7 SSE 11 17 6 9 1029.4 1029.5 0.0
30/06:00pm 10.4 6.5 3.2 61 3.1 SSE 13 17 7 9 1029.3 1029.4 0.0
30/05:30pm 11.3 7.4 3.6 59 3.4 SSE 13 20 7 11 1028.9 1029.0 0.0
30/05:00pm 11.8 8.3 3.6 57 3.6 S 11 20 6 11 1028.6 1028.7 0.0
30/04:30pm 13.1 9.9 2.9 50 4.5 SW 9 17 5 9 1028.3 1028.4 0.0
30/04:00pm 13.2 10.0 3.3 51 4.4 WSW 9 15 5 8 1028.2 1028.3 0.0
30/03:30pm 13.0 9.1 3.4 52 4.3 WSW 13 19 7 10 1028.1 1028.2 0.0
30/03:00pm 13.0 9.4 3.1 51 4.4 WSW 11 15 6 8 1028.1 1028.2 0.0
30/02:30pm 13.8 10.3 3.6 50 4.6 SW 11 19 6 10 1028.3 1028.4 0.0
30/02:00pm 12.7 8.8 3.6 54 4.0 SW 13 19 7 10 1028.7 1028.8 0.0
30/01:30pm 12.5 8.9 5.0 60 3.5 SW 13 20 7 11 1028.8 1028.9 0.0
30/01:00pm 12.5 8.9 5.0 60 3.4 WSW 13 17 7 9 1029.1 1029.2 0.0
30/12:30pm 12.6 8.9 4.6 58 3.7 W 13 20 7 11 1029.6 1029.7 0.0
30/12:00pm 12.5 9.1 6.1 65 3.0 W 13 19 7 10 1029.9 1030.0 0.0
30/11:30am 11.8 8.9 6.5 70 2.5 WNW 11 17 6 9 1030.3 1030.4 0.0
30/11:00am 11.3 8.4 6.4 72 2.3 W 11 17 6 9 1030.4 1030.5 0.0
30/10:30am 10.6 8.1 6.6 76 1.9 W 9 13 5 7 1030.5 1030.6 0.0
30/10:00am 9.7 7.1 5.9 77 1.7 WNW 9 11 5 6 1030.5 1030.6 0.0
30/09:30am 9.0 6.7 5.9 81 1.4 W 7 11 4 6 1030.3 1030.4 0.0
30/09:00am 8.4 6.6 5.5 82 1.3 WNW 4 7 2 4 1030.1 1030.2 0.0
30/08:30am 7.9 6.1 5.2 83 1.2 WSW 4 7 2 4 1030.0 1030.1 0.0
30/08:00am 7.6 5.3 4.7 82 1.3 W 6 9 3 5 1029.8 1029.9 0.0
30/07:30am 7.5 5.0 4.8 83 1.2 WNW 7 9 4 5 1029.6 1029.7 0.0
30/07:00am 7.5 5.0 4.8 83 1.2 W 7 9 4 5 1029.4 1029.5 0.0
30/06:30am 7.7 4.8 4.8 82 1.3 WNW 9 11 5 6 1029.2 1029.3 0.0
30/06:00am 7.7 4.8 4.8 82 1.3 WSW 9 17 5 9 1029.0 1029.1 0.0
30/05:30am 7.9 5.4 4.7 80 1.4 NW 7 9 4 5 1028.7 1028.8 0.0
30/05:00am 7.8 5.3 4.7 81 1.4 NW 7 9 4 5 1028.6 1028.7 0.0
30/04:30am 7.8 5.5 4.9 82 1.3 NW 6 7 3 4 1028.7 1028.8 0.0
30/04:00am 7.9 5.6 5.0 82 1.3 WNW 6 7 3 4 1028.8 1028.9 0.0
30/03:30am 8.4 6.1 4.8 78 1.6 NW 6 7 3 4 1028.9 1029.0 0.0
30/03:00am 9.0 6.7 5.0 76 1.8 NW 6 6 3 3 1029.0 1029.1 0.0
30/02:30am 9.0 6.7 5.0 76 1.8 NW 6 6 3 3 1029.2 1029.3 0.0
30/02:00am 9.2 6.9 4.6 73 2.0 NNW 6 7 3 4 1029.3 1029.4 0.0
30/01:30am 8.8 7.8 5.4 79 1.5 CALM 0 0 0 0 1029.3 1029.4 0.0
30/01:00am 8.8 7.9 5.9 82 1.3 CALM 0 0 0 0 1029.3 1029.4 0.0
30/12:30am 8.9 7.8 5.3 78 1.6 CALM 0 0 0 0 1029.5 1029.6 0.0
30/12:00am 9.2 7.7 5.0 75 1.9 S 2 6 1 3 1029.7 1029.8 0.0
 
Date/Time
EST
Temp
°C
App
Temp
°C
Dew
Point
Rel
Hum
%
Delta-T
°C
Wind Press
QNH
hPa
Press
MSL
hPa
Rain
since 9 am
mm
Dir
 
Spd
km/h
Gust
km/h
Spd
kts
Gust
kts
29/11:30pm 9.3 6.8 4.7 73 2.1 SW 7 11 4 6 1029.8 1029.9 0.0
29/11:00pm 9.3 7.8 5.1 75 1.9 SSW 2 6 1 3 1030.0 1030.1 0.0
29/10:30pm 9.5 7.3 5.3 75 1.9 SW 6 9 3 5 1030.0 1030.1 0.0
29/10:00pm 9.6 7.7 5.0 73 2.1 WSW 4 9 2 5 1030.4 1030.5 0.0
29/09:30pm 9.8 8.0 5.4 74 2.0 W 4 7 2 4 1030.6 1030.7 0.0
29/09:00pm 10.1 9.0 4.9 70 2.3 CALM 0 0 0 0 1030.6 1030.7 0.0
29/08:30pm 10.1 9.0 5.3 72 2.2 CALM 0 0 0 0 1030.5 1030.6 0.0
29/08:00pm 10.4 9.2 4.5 67 2.6 CALM 0 0 0 0 1030.4 1030.5 0.0

Other Formats:

Comma delimited format used in spreadsheet applications
http://www.bom.gov.au/fwo/IDN60801/IDN60801.94693.axf

JavaScript Object Notation format (JSON) in row-major order
http://www.bom.gov.au/fwo/IDN60801/IDN60801.94693.json